KRSN

Details ICAO KRSN
Name RUSTON RGNL
Region United States
Timezone America/Chicago (UTC-5.0)
Plans Departing 5
Arriving 6
Stats Elevation 311 ft / 95 m (AMSL)
Location 32.514583° -92.588333°
Runways 1
Magnetic Variation 0.576° E
Sunrise 2018-05-21 11:09:44 UTC / 2018-05-21 06:09:44 Local
Sunset 2018-05-22 01:07:03 UTC / 2018-05-21 20:07:03 Local
Advertisement - Login to hide

Runways

ID Width Length Bearing (true) Bearing (mag) Surface Threshold Offset Overrun Length
18 100 ft / 30 m 5,018 ft / 1,529 m 180.00° 179.42° Asphalt 0 ft / 0 m 0 ft / 0 m
36 100 ft / 30 m 5,018 ft / 1,529 m 0.00° 359.42° Asphalt 200 ft / 61 m 0 ft / 0 m

Map

Weather


0- 5 10 15 20 25 30 35+ Temperature / ° C

Clouds and Precipitation
Forecast for 2018-05-21 06:00 UTC. Updated 2 hours ago

Ground ~20,000 ft ~40,000 ft Winds

METAR

KRSN 210655Z AUTO 00000KT 10SM SCT120 21/19 A3003 RMK AO2 T02130189

TAF

Not found

Frequencies

Recorded 119.52 MHz AWOS 3
Clearance 118.80 MHz CLNC DEL
Unicom 122.70 MHz UNICOM
Approach 126.90 MHz MONROE APP/DEP
Warning: Do not use this data for real-world aviation or navigation. No guarantee of current accuracy is given.